Terminal Aerodrome Forecast
Issued by NWS

Home | Current Version | Previous Version | Text Only | Print | Product List | Glossary On
Versions: 1 2 3 4 5 6 7 8 9 10 11 12 13 14 15 16 17 18 19 20 21 22 23 24 25 26 27 28 29
000
FTUS41 KCAR 180526
TAFFVE
TAF
KFVE 180526Z 1806/1906 32010G20KT P6SM BKN015
     FM180900 32008KT P6SM FEW045 SCT150
     FM181600 31004KT P6SM BKN060 BKN200
     FM182100 VRB02KT P6SM BKN025 BKN080
     FM190400 12006KT P6SM VCSH BKN025 OVC090=

USA.gov is the U.S. government's official web portal to all federal, state and local government web resources and services.